sensor_id;sensor_type;location;lat;lon;timestamp;pressure;altitude;pressure_sealevel;temperature;humidity
64200;BME280;50516;52.272;5.136;2023-02-04T00:00:44;103256.59;;;9.22;76.71
64200;BME280;50516;52.272;5.136;2023-02-04T00:03:10;103261.63;;;9.18;77.00
64200;BME280;50516;52.272;5.136;2023-02-04T00:05:35;103264.22;;;9.26;76.71
64200;BME280;50516;52.272;5.136;2023-02-04T00:08:01;103264.03;;;9.35;76.69
64200;BME280;50516;52.272;5.136;2023-02-04T00:10:28;103274.91;;;9.14;76.45
64200;BME280;50516;52.272;5.136;2023-02-04T00:12:53;103263.13;;;9.14;77.32
64200;BME280;50516;52.272;5.136;2023-02-04T00:15:19;103271.78;;;9.18;76.66
64200;BME280;50516;52.272;5.136;2023-02-04T00:17:44;103273.25;;;9.20;77.14
64200;BME280;50516;52.272;5.136;2023-02-04T00:20:10;103286.94;;;9.20;77.48
64200;BME280;50516;52.272;5.136;2023-02-04T00:22:35;103298.09;;;9.12;77.49
64200;BME280;50516;52.272;5.136;2023-02-04T00:25:01;103281.41;;;9.07;77.71
64200;BME280;50516;52.272;5.136;2023-02-04T00:27:26;103284.78;;;9.09;78.06
64200;BME280;50516;52.272;5.136;2023-02-04T00:29:51;103278.06;;;9.11;78.23
64200;BME280;50516;52.272;5.136;2023-02-04T00:32:17;103288.41;;;9.16;78.14
64200;BME280;50516;52.272;5.136;2023-02-04T00:34:42;103287.84;;;8.92;79.28
64200;BME280;50516;52.272;5.136;2023-02-04T00:37:08;103295.94;;;9.07;78.82
64200;BME280;50516;52.272;5.136;2023-02-04T00:39:33;103293.53;;;8.91;79.79
64200;BME280;50516;52.272;5.136;2023-02-04T00:41:59;103299.31;;;9.03;79.53
64200;BME280;50516;52.272;5.136;2023-02-04T00:44:24;103298.47;;;9.09;79.48
64200;BME280;50516;52.272;5.136;2023-02-04T00:46:49;103301.88;;;9.11;79.11
64200;BME280;50516;52.272;5.136;2023-02-04T00:49:15;103298.47;;;9.09;79.27
64200;BME280;50516;52.272;5.136;2023-02-04T00:51:41;103304.56;;;9.04;79.47
64200;BME280;50516;52.272;5.136;2023-02-04T00:54:10;103319.13;;;9.05;79.56
64200;BME280;50516;52.272;5.136;2023-02-04T00:56:36;103309.41;;;9.02;79.74
64200;BME280;50516;52.272;5.136;2023-02-04T00:59:01;103314.81;;;8.89;80.51
64200;BME280;50516;52.272;5.136;2023-02-04T01:01:27;103316.97;;;8.93;80.53
64200;BME280;50516;52.272;5.136;2023-02-04T01:03:52;103320.34;;;8.95;80.11
64200;BME280;50516;52.272;5.136;2023-02-04T01:06:18;103322.03;;;8.97;79.96
64200;BME280;50516;52.272;5.136;2023-02-04T01:08:43;103324.09;;;8.94;80.14
64200;BME280;50516;52.272;5.136;2023-02-04T01:11:09;103318.34;;;8.83;80.86
64200;BME280;50516;52.272;5.136;2023-02-04T01:13:34;103324.94;;;8.88;80.83
64200;BME280;50516;52.272;5.136;2023-02-04T01:15:59;103334.59;;;8.84;81.44
64200;BME280;50516;52.272;5.136;2023-02-04T01:18:25;103325.34;;;8.85;81.38
64200;BME280;50516;52.272;5.136;2023-02-04T01:20:50;103329.25;;;8.76;82.27
64200;BME280;50516;52.272;5.136;2023-02-04T01:23:15;103335.34;;;8.71;82.53
64200;BME280;50516;52.272;5.136;2023-02-04T01:25:41;103339.81;;;8.79;82.65
64200;BME280;50516;52.272;5.136;2023-02-04T01:28:06;103340.03;;;8.77;82.74
64200;BME280;50516;52.272;5.136;2023-02-04T01:30:32;103337.47;;;8.76;82.82
64200;BME280;50516;52.272;5.136;2023-02-04T01:32:57;103336.16;;;8.72;83.24
64200;BME280;50516;52.272;5.136;2023-02-04T01:35:22;103346.63;;;8.62;84.25
64200;BME280;50516;52.272;5.136;2023-02-04T01:37:48;103353.03;;;8.69;84.64
64200;BME280;50516;52.272;5.136;2023-02-04T01:40:13;103349.47;;;8.75;84.18
64200;BME280;50516;52.272;5.136;2023-02-04T01:42:38;103358.50;;;8.69;84.34
64200;BME280;50516;52.272;5.136;2023-02-04T01:45:05;103359.44;;;8.54;85.44
64200;BME280;50516;52.272;5.136;2023-02-04T01:47:31;103356.31;;;8.57;85.62
64200;BME280;50516;52.272;5.136;2023-02-04T01:49:57;103366.97;;;8.74;84.84
64200;BME280;50516;52.272;5.136;2023-02-04T01:52:23;103373.34;;;8.81;84.61
64200;BME280;50516;52.272;5.136;2023-02-04T01:54:48;103367.50;;;8.63;85.75
64200;BME280;50516;52.272;5.136;2023-02-04T01:57:15;103374.25;;;8.67;86.06
64200;BME280;50516;52.272;5.136;2023-02-04T01:59:45;103381.59;;;8.59;85.84
64200;BME280;50516;52.272;5.136;2023-02-04T02:05:01;103379.50;;;8.62;86.27
64200;BME280;50516;52.272;5.136;2023-02-04T02:07:27;103380.81;;;8.66;85.82
64200;BME280;50516;52.272;5.136;2023-02-04T02:09:52;103381.34;;;8.54;86.58
64200;BME280;50516;52.272;5.136;2023-02-04T02:12:17;103371.13;;;8.70;86.56
64200;BME280;50516;52.272;5.136;2023-02-04T02:14:43;103377.69;;;8.69;86.64
64200;BME280;50516;52.272;5.136;2023-02-04T02:17:08;103386.47;;;8.64;86.68
64200;BME280;50516;52.272;5.136;2023-02-04T02:19:36;103383.75;;;8.64;86.99
64200;BME280;50516;52.272;5.136;2023-02-04T02:22:09;103388.50;;;8.55;87.38
64200;BME280;50516;52.272;5.136;2023-02-04T02:24:36;103392.53;;;8.59;87.35
64200;BME280;50516;52.272;5.136;2023-02-04T02:27:06;103396.63;;;8.70;86.89
64200;BME280;50516;52.272;5.136;2023-02-04T02:29:33;103390.56;;;8.75;86.38
64200;BME280;50516;52.272;5.136;2023-02-04T02:31:59;103398.06;;;8.66;86.71
64200;BME280;50516;52.272;5.136;2023-02-04T02:34:26;103385.47;;;8.72;86.67
64200;BME280;50516;52.272;5.136;2023-02-04T02:36:52;103397.69;;;8.69;86.87
64200;BME280;50516;52.272;5.136;2023-02-04T02:39:18;103393.44;;;8.67;87.32
64200;BME280;50516;52.272;5.136;2023-02-04T02:41:44;103398.28;;;8.65;87.47
64200;BME280;50516;52.272;5.136;2023-02-04T02:44:11;103395.16;;;8.68;86.95
64200;BME280;50516;52.272;5.136;2023-02-04T02:46:37;103397.63;;;8.63;86.91
64200;BME280;50516;52.272;5.136;2023-02-04T02:49:03;103395.94;;;8.62;86.71
64200;BME280;50516;52.272;5.136;2023-02-04T02:51:28;103398.41;;;8.56;86.88
64200;BME280;50516;52.272;5.136;2023-02-04T02:53:55;103399.31;;;8.64;87.00
64200;BME280;50516;52.272;5.136;2023-02-04T02:56:21;103395.28;;;8.59;86.44
64200;BME280;50516;52.272;5.136;2023-02-04T02:58:46;103399.44;;;8.55;86.85
64200;BME280;50516;52.272;5.136;2023-02-04T03:01:12;103401.78;;;8.58;86.60
64200;BME280;50516;52.272;5.136;2023-02-04T03:03:43;103403.25;;;8.54;87.11
64200;BME280;50516;52.272;5.136;2023-02-04T03:06:15;103402.63;;;8.59;86.75
64200;BME280;50516;52.272;5.136;2023-02-04T03:08:42;103404.28;;;8.53;87.41
64200;BME280;50516;52.272;5.136;2023-02-04T03:11:09;103400.22;;;8.49;86.78
64200;BME280;50516;52.272;5.136;2023-02-04T03:13:35;103401.38;;;8.40;87.81
64200;BME280;50516;52.272;5.136;2023-02-04T03:16:01;103391.63;;;8.52;87.15
64200;BME280;50516;52.272;5.136;2023-02-04T03:18:27;103393.72;;;8.50;87.40
64200;BME280;50516;52.272;5.136;2023-02-04T03:20:53;103395.47;;;8.58;86.89
64200;BME280;50516;52.272;5.136;2023-02-04T03:23:18;103391.84;;;8.36;87.87
64200;BME280;50516;52.272;5.136;2023-02-04T03:25:44;103385.22;;;8.23;88.72
64200;BME280;50516;52.272;5.136;2023-02-04T03:28:10;103395.44;;;8.36;88.37
64200;BME280;50516;52.272;5.136;2023-02-04T03:30:35;103399.28;;;8.42;88.27
64200;BME280;50516;52.272;5.136;2023-02-04T03:33:00;103393.06;;;8.48;88.37
64200;BME280;50516;52.272;5.136;2023-02-04T03:35:26;103402.22;;;8.40;87.70
64200;BME280;50516;52.272;5.136;2023-02-04T03:37:51;103398.97;;;8.30;88.18
64200;BME280;50516;52.272;5.136;2023-02-04T03:40:17;103398.69;;;8.25;88.71
64200;BME280;50516;52.272;5.136;2023-02-04T03:42:42;103398.78;;;8.32;87.60
64200;BME280;50516;52.272;5.136;2023-02-04T03:45:08;103408.84;;;8.10;89.37
64200;BME280;50516;52.272;5.136;2023-02-04T03:47:33;103414.75;;;8.13;88.53
64200;BME280;50516;52.272;5.136;2023-02-04T03:49:58;103417.16;;;8.01;88.69
64200;BME280;50516;52.272;5.136;2023-02-04T03:52:24;103422.44;;;8.03;88.17
64200;BME280;50516;52.272;5.136;2023-02-04T03:54:49;103422.25;;;8.04;87.42
64200;BME280;50516;52.272;5.136;2023-02-04T03:57:14;103426.66;;;8.05;87.32
64200;BME280;50516;52.272;5.136;2023-02-04T03:59:40;103429.78;;;8.02;86.94
64200;BME280;50516;52.272;5.136;2023-02-04T04:02:06;103426.22;;;8.02;86.47
64200;BME280;50516;52.272;5.136;2023-02-04T04:04:31;103424.31;;;8.02;86.40
64200;BME280;50516;52.272;5.136;2023-02-04T04:06:57;103424.31;;;8.02;87.16
64200;BME280;50516;52.272;5.136;2023-02-04T04:09:22;103420.75;;;8.02;86.00
64200;BME280;50516;52.272;5.136;2023-02-04T04:11:48;103420.75;;;8.02;86.20
64200;BME280;50516;52.272;5.136;2023-02-04T04:14:13;103423.22;;;7.97;85.94
64200;BME280;50516;52.272;5.136;2023-02-04T04:16:38;103426.78;;;7.97;85.79
64200;BME280;50516;52.272;5.136;2023-02-04T04:19:04;103437.44;;;7.92;85.60
64200;BME280;50516;52.272;5.136;2023-02-04T04:21:29;103444.16;;;7.90;85.68
64200;BME280;50516;52.272;5.136;2023-02-04T04:23:54;103446.91;;;7.90;85.66
64200;BME280;50516;52.272;5.136;2023-02-04T04:26:20;103445.56;;;7.85;86.13
64200;BME280;50516;52.272;5.136;2023-02-04T04:28:45;103445.84;;;7.91;86.91
64200;BME280;50516;52.272;5.136;2023-02-04T04:31:10;103440.94;;;7.86;85.86
64200;BME280;50516;52.272;5.136;2023-02-04T04:33:36;103440.66;;;7.81;85.73
64200;BME280;50516;52.272;5.136;2023-02-04T04:36:02;103439.28;;;7.85;85.53
64200;BME280;50516;52.272;5.136;2023-02-04T04:38:28;103429.53;;;7.82;85.28
64200;BME280;50516;52.272;5.136;2023-02-04T04:40:53;103445.19;;;7.89;85.33
64200;BME280;50516;52.272;5.136;2023-02-04T04:43:19;103444.56;;;7.86;85.09
64200;BME280;50516;52.272;5.136;2023-02-04T04:45:45;103440.56;;;7.89;85.03
64200;BME280;50516;52.272;5.136;2023-02-04T04:48:10;103446.50;;;7.93;84.91
64200;BME280;50516;52.272;5.136;2023-02-04T04:50:36;103449.53;;;7.98;85.44
64200;BME280;50516;52.272;5.136;2023-02-04T04:53:01;103442.63;;;8.02;85.25
64200;BME280;50516;52.272;5.136;2023-02-04T04:55:26;103442.63;;;8.02;85.08
64200;BME280;50516;52.272;5.136;2023-02-04T04:57:52;103431.88;;;8.00;85.02
64200;BME280;50516;52.272;5.136;2023-02-04T05:00:19;103439.25;;;8.00;85.19
64200;BME280;50516;52.272;5.136;2023-02-04T05:02:45;103431.88;;;8.00;85.45
64200;BME280;50516;52.272;5.136;2023-02-04T05:05:11;103436.78;;;8.05;85.81
64200;BME280;50516;52.272;5.136;2023-02-04T05:07:36;103438.66;;;8.04;85.23
64200;BME280;50516;52.272;5.136;2023-02-04T05:10:03;103440.16;;;8.07;85.52
64200;BME280;50516;52.272;5.136;2023-02-04T05:12:29;103440.16;;;8.07;85.74
64200;BME280;50516;52.272;5.136;2023-02-04T05:14:54;103446.31;;;8.09;85.51
64200;BME280;50516;52.272;5.136;2023-02-04T05:17:19;103442.06;;;8.07;85.83
64200;BME280;50516;52.272;5.136;2023-02-04T05:19:45;103444.59;;;8.08;86.07
64200;BME280;50516;52.272;5.136;2023-02-04T05:22:10;103443.56;;;8.09;86.16
64200;BME280;50516;52.272;5.136;2023-02-04T05:24:35;103441.03;;;8.08;86.26
64200;BME280;50516;52.272;5.136;2023-02-04T05:27:01;103438.09;;;8.09;86.62
64200;BME280;50516;52.272;5.136;2023-02-04T05:29:26;103430.72;;;8.10;86.48
64200;BME280;50516;52.272;5.136;2023-02-04T05:31:51;103434.97;;;8.12;86.42
64200;BME280;50516;52.272;5.136;2023-02-04T05:34:17;103437.13;;;8.17;86.91
64200;BME280;50516;52.272;5.136;2023-02-04T05:36:42;103438.44;;;8.21;86.65
64200;BME280;50516;52.272;5.136;2023-02-04T05:39:07;103448.16;;;8.23;86.79
64200;BME280;50516;52.272;5.136;2023-02-04T05:41:33;103455.69;;;8.21;86.88
64200;BME280;50516;52.272;5.136;2023-02-04T05:43:59;103453.53;;;8.17;86.99
64200;BME280;50516;52.272;5.136;2023-02-04T05:46:24;103452.31;;;8.19;86.95
64200;BME280;50516;52.272;5.136;2023-02-04T05:48:49;103457.78;;;8.19;87.03
64200;BME280;50516;52.272;5.136;2023-02-04T05:51:15;103466.56;;;8.15;87.42
64200;BME280;50516;52.272;5.136;2023-02-04T05:53:40;103476.97;;;8.04;87.96
64200;BME280;50516;52.272;5.136;2023-02-04T05:56:05;103475.38;;;7.95;88.17
64200;BME280;50516;52.272;5.136;2023-02-04T05:58:31;103479.25;;;7.86;88.58
64200;BME280;50516;52.272;5.136;2023-02-04T06:01:02;103484.91;;;7.84;88.76
64200;BME280;50516;52.272;5.136;2023-02-04T06:03:29;103485.97;;;7.83;88.84
64200;BME280;50516;52.272;5.136;2023-02-04T06:05:55;103490.38;;;7.84;88.46
64200;BME280;50516;52.272;5.136;2023-02-04T06:08:21;103495.38;;;7.81;88.70
64200;BME280;50516;52.272;5.136;2023-02-04T06:10:46;103499.81;;;7.82;88.71
64200;BME280;50516;52.272;5.136;2023-02-04T06:13:12;103504.41;;;7.81;88.33
64200;BME280;50516;52.272;5.136;2023-02-04T06:15:37;103497.28;;;7.80;88.52
64200;BME280;50516;52.272;5.136;2023-02-04T06:18:02;103514.53;;;7.81;88.40
64200;BME280;50516;52.272;5.136;2023-02-04T06:20:28;103503.22;;;7.84;88.34
64200;BME280;50516;52.272;5.136;2023-02-04T06:22:53;103512.06;;;7.86;87.81
64200;BME280;50516;52.272;5.136;2023-02-04T06:25:21;103512.81;;;7.80;88.14
64200;BME280;50516;52.272;5.136;2023-02-04T06:27:47;103516.13;;;7.75;88.27
64200;BME280;50516;52.272;5.136;2023-02-04T06:30:12;103525.75;;;7.71;88.49
64200;BME280;50516;52.272;5.136;2023-02-04T06:32:38;103532.91;;;7.72;88.21
64200;BME280;50516;52.272;5.136;2023-02-04T06:35:03;103531.22;;;7.71;88.31
64200;BME280;50516;52.272;5.136;2023-02-04T06:37:29;103540.44;;;7.70;88.40
64200;BME280;50516;52.272;5.136;2023-02-04T06:39:54;103535.75;;;7.64;88.61
64200;BME280;50516;52.272;5.136;2023-02-04T06:42:21;103537.44;;;7.65;88.44
64200;BME280;50516;52.272;5.136;2023-02-04T06:44:47;103549.00;;;7.67;88.27
64200;BME280;50516;52.272;5.136;2023-02-04T06:47:12;103552.44;;;7.69;88.15
64200;BME280;50516;52.272;5.136;2023-02-04T06:49:37;103543.19;;;7.70;88.19
64200;BME280;50516;52.272;5.136;2023-02-04T06:52:03;103555.53;;;7.66;88.06
64200;BME280;50516;52.272;5.136;2023-02-04T06:54:29;103560.16;;;7.65;88.18
64200;BME280;50516;52.272;5.136;2023-02-04T06:56:54;103563.75;;;7.66;87.69
64200;BME280;50516;52.272;5.136;2023-02-04T06:59:20;103565.25;;;7.68;87.64
64200;BME280;50516;52.272;5.136;2023-02-04T07:01:45;103555.16;;;7.69;87.71
64200;BME280;50516;52.272;5.136;2023-02-04T07:04:10;103574.31;;;7.69;87.62
64200;BME280;50516;52.272;5.136;2023-02-04T07:06:36;103569.13;;;7.74;87.80
64200;BME280;50516;52.272;5.136;2023-02-04T07:09:01;103570.16;;;7.73;87.45
64200;BME280;50516;52.272;5.136;2023-02-04T07:11:26;103561.88;;;7.81;87.57
64200;BME280;50516;52.272;5.136;2023-02-04T07:13:52;103567.53;;;7.80;87.06
64200;BME280;50516;52.272;5.136;2023-02-04T07:16:17;103573.00;;;7.80;87.27
64200;BME280;50516;52.272;5.136;2023-02-04T07:18:42;103578.09;;;7.83;87.47
64200;BME280;50516;52.272;5.136;2023-02-04T07:21:08;103582.63;;;7.91;87.65
64200;BME280;50516;52.272;5.136;2023-02-04T07:23:33;103588.56;;;7.94;87.47
64200;BME280;50516;52.272;5.136;2023-02-04T07:25:59;103587.53;;;7.95;87.26
64200;BME280;50516;52.272;5.136;2023-02-04T07:28:24;103588.88;;;7.99;87.46
64200;BME280;50516;52.272;5.136;2023-02-04T07:30:50;103580.88;;;7.98;87.08
64200;BME280;50516;52.272;5.136;2023-02-04T07:33:16;103595.19;;;8.00;87.58
64200;BME280;50516;52.272;5.136;2023-02-04T07:35:41;103592.75;;;8.05;87.45
64200;BME280;50516;52.272;5.136;2023-02-04T07:38:06;103595.94;;;8.09;87.45
64200;BME280;50516;52.272;5.136;2023-02-04T07:40:32;103602.47;;;8.08;87.88
64200;BME280;50516;52.272;5.136;2023-02-04T07:42:57;103606.69;;;8.10;87.98
64200;BME280;50516;52.272;5.136;2023-02-04T07:45:23;103599.38;;;8.11;87.67
64200;BME280;50516;52.272;5.136;2023-02-04T07:47:48;103596.34;;;8.20;87.69
64200;BME280;50516;52.272;5.136;2023-02-04T07:50:14;103603.50;;;8.21;87.78
64200;BME280;50516;52.272;5.136;2023-02-04T07:52:40;103602.94;;;8.26;87.68
64200;BME280;50516;52.272;5.136;2023-02-04T07:55:06;103612.47;;;8.30;88.03
64200;BME280;50516;52.272;5.136;2023-02-04T07:57:32;103611.69;;;8.36;87.70
64200;BME280;50516;52.272;5.136;2023-02-04T07:59:57;103612.69;;;8.44;87.90
64200;BME280;50516;52.272;5.136;2023-02-04T08:02:23;103620.06;;;8.43;88.12
64200;BME280;50516;52.272;5.136;2023-02-04T08:04:48;103619.09;;;8.51;87.40
64200;BME280;50516;52.272;5.136;2023-02-04T08:07:13;103629.66;;;8.54;87.80
64200;BME280;50516;52.272;5.136;2023-02-04T08:09:39;103625.06;;;8.54;87.66
64200;BME280;50516;52.272;5.136;2023-02-04T08:12:04;103632.69;;;8.59;88.18
64200;BME280;50516;52.272;5.136;2023-02-04T08:14:29;103625.59;;;8.65;87.59
64200;BME280;50516;52.272;5.136;2023-02-04T08:16:55;103630.31;;;8.71;87.68
64200;BME280;50516;52.272;5.136;2023-02-04T08:19:20;103639.06;;;8.81;87.86
64200;BME280;50516;52.272;5.136;2023-02-04T08:21:46;103637.00;;;8.83;87.26
64200;BME280;50516;52.272;5.136;2023-02-04T08:24:13;103644.81;;;8.86;87.66
64200;BME280;50516;52.272;5.136;2023-02-04T08:26:39;103646.81;;;8.92;87.54
64200;BME280;50516;52.272;5.136;2023-02-04T08:29:05;103642.84;;;8.95;87.57
64200;BME280;50516;52.272;5.136;2023-02-04T08:31:31;103654.25;;;8.99;87.64
64200;BME280;50516;52.272;5.136;2023-02-04T08:33:56;103658.97;;;9.05;87.21
64200;BME280;50516;52.272;5.136;2023-02-04T08:36:22;103656.13;;;9.13;87.04
64200;BME280;50516;52.272;5.136;2023-02-04T08:38:47;103659.50;;;9.15;87.37
64200;BME280;50516;52.272;5.136;2023-02-04T08:41:12;103665.63;;;9.17;87.06
64200;BME280;50516;52.272;5.136;2023-02-04T08:43:38;103658.34;;;9.24;86.83
64200;BME280;50516;52.272;5.136;2023-02-04T08:46:04;103662.66;;;9.34;86.96
64200;BME280;50516;52.272;5.136;2023-02-04T08:48:29;103666.91;;;9.36;86.69
64200;BME280;50516;52.272;5.136;2023-02-04T08:50:55;103669.25;;;9.39;86.95
64200;BME280;50516;52.272;5.136;2023-02-04T08:53:20;103666.13;;;9.42;86.98
64200;BME280;50516;52.272;5.136;2023-02-04T08:55:45;103667.91;;;9.50;87.02
64200;BME280;50516;52.272;5.136;2023-02-04T08:58:11;103667.56;;;9.60;86.47
64200;BME280;50516;52.272;5.136;2023-02-04T09:00:36;103668.00;;;9.63;86.43
64200;BME280;50516;52.272;5.136;2023-02-04T09:03:01;103676.06;;;9.65;86.04
64200;BME280;50516;52.272;5.136;2023-02-04T09:05:27;103673.09;;;9.66;86.24
64200;BME280;50516;52.272;5.136;2023-02-04T09:07:52;103665.31;;;9.70;85.65
64200;BME280;50516;52.272;5.136;2023-02-04T09:10:18;103667.28;;;9.76;85.88
64200;BME280;50516;52.272;5.136;2023-02-04T09:12:43;103663.75;;;9.82;85.67
64200;BME280;50516;52.272;5.136;2023-02-04T09:15:09;103669.09;;;9.91;85.46
64200;BME280;50516;52.272;5.136;2023-02-04T09:17:35;103667.66;;;9.95;84.63
64200;BME280;50516;52.272;5.136;2023-02-04T09:20:02;103682.28;;;10.02;84.57
64200;BME280;50516;52.272;5.136;2023-02-04T09:22:27;103682.91;;;10.04;84.65
64200;BME280;50516;52.272;5.136;2023-02-04T09:24:53;103682.34;;;10.09;84.57
64200;BME280;50516;52.272;5.136;2023-02-04T09:27:18;103679.22;;;10.18;83.73
64200;BME280;50516;52.272;5.136;2023-02-04T09:29:44;103681.81;;;10.27;83.70
64200;BME280;50516;52.272;5.136;2023-02-04T09:32:09;103677.47;;;10.32;83.53
64200;BME280;50516;52.272;5.136;2023-02-04T09:34:34;103679.06;;;10.27;83.70
64200;BME280;50516;52.272;5.136;2023-02-04T09:37:00;103671.50;;;10.29;84.11
64200;BME280;50516;52.272;5.136;2023-02-04T09:39:25;103683.69;;;10.19;84.61
64200;BME280;50516;52.272;5.136;2023-02-04T09:41:50;103685.56;;;10.19;83.68
64200;BME280;50516;52.272;5.136;2023-02-04T09:44:20;103691.84;;;10.34;84.11
64200;BME280;50516;52.272;5.136;2023-02-04T09:46:51;103689.09;;;10.34;82.96
64200;BME280;50516;52.272;5.136;2023-02-04T09:49:17;103698.38;;;10.33;82.75
64200;BME280;50516;52.272;5.136;2023-02-04T09:51:43;103691.47;;;10.44;82.68
64200;BME280;50516;52.272;5.136;2023-02-04T09:54:16;103700.63;;;10.51;81.78
64200;BME280;50516;52.272;5.136;2023-02-04T09:56:42;103696.63;;;10.54;80.95
64200;BME280;50516;52.272;5.136;2023-02-04T09:59:17;103708.13;;;10.71;80.70
64200;BME280;50516;52.272;5.136;2023-02-04T10:01:46;103712.78;;;10.77;79.31
64200;BME280;50516;52.272;5.136;2023-02-04T10:04:13;103709.56;;;11.02;79.05
64200;BME280;50516;52.272;5.136;2023-02-04T10:06:41;103705.78;;;11.09;78.87
64200;BME280;50516;52.272;5.136;2023-02-04T10:09:10;103707.59;;;10.89;78.66
64200;BME280;50516;52.272;5.136;2023-02-04T10:11:37;103707.41;;;10.97;79.12
64200;BME280;50516;52.272;5.136;2023-02-04T10:14:09;103707.00;;;11.00;78.73
64200;BME280;50516;52.272;5.136;2023-02-04T10:16:39;103718.34;;;10.84;78.88
64200;BME280;50516;52.272;5.136;2023-02-04T10:19:14;103723.91;;;10.97;79.22
64200;BME280;50516;52.272;5.136;2023-02-04T10:21:40;103718.03;;;11.07;78.11
64200;BME280;50516;52.272;5.136;2023-02-04T10:24:18;103714.38;;;11.00;78.24
64200;BME280;50516;52.272;5.136;2023-02-04T10:26:44;103719.06;;;11.06;77.72
64200;BME280;50516;52.272;5.136;2023-02-04T10:29:19;103725.69;;;11.25;76.66
64200;BME280;50516;52.272;5.136;2023-02-04T10:31:49;103715.88;;;10.95;76.95
64200;BME280;50516;52.272;5.136;2023-02-04T10:34:23;103723.13;;;11.10;77.13
64200;BME280;50516;52.272;5.136;2023-02-04T10:36:56;103720.97;;;11.05;76.84
64200;BME280;50516;52.272;5.136;2023-02-04T10:39:27;103730.16;;;11.26;76.73
64200;BME280;50516;52.272;5.136;2023-02-04T10:41:59;103721.91;;;11.19;76.31
64200;BME280;50516;52.272;5.136;2023-02-04T10:44:33;103721.84;;;11.12;76.74
64200;BME280;50516;52.272;5.136;2023-02-04T10:47:15;103721.81;;;11.06;76.47
64200;BME280;50516;52.272;5.136;2023-02-04T10:49:51;103724.66;;;11.26;75.67
64200;BME280;50516;52.272;5.136;2023-02-04T10:52:18;103720.44;;;11.37;75.64
64200;BME280;50516;52.272;5.136;2023-02-04T10:54:46;103717.97;;;11.55;74.53
64200;BME280;50516;52.272;5.136;2023-02-04T10:57:37;103721.97;;;11.46;74.48
64200;BME280;50516;52.272;5.136;2023-02-04T11:00:03;103726.84;;;11.57;75.11
64200;BME280;50516;52.272;5.136;2023-02-04T11:05:17;103734.66;;;11.47;75.18
64200;BME280;50516;52.272;5.136;2023-02-04T11:07:44;103729.41;;;11.65;74.35
64200;BME280;50516;52.272;5.136;2023-02-04T11:10:26;103730.69;;;11.69;73.54
64200;BME280;50516;52.272;5.136;2023-02-04T11:16:06;103716.47;;;11.52;74.10
64200;BME280;50516;52.272;5.136;2023-02-04T11:18:44;103715.63;;;11.59;74.48
64200;BME280;50516;52.272;5.136;2023-02-04T11:21:23;103707.59;;;11.50;73.79
64200;BME280;50516;52.272;5.136;2023-02-04T11:23:49;103717.28;;;11.46;73.47
64200;BME280;50516;52.272;5.136;2023-02-04T11:26:31;103711.53;;;11.28;74.37
64200;BME280;50516;52.272;5.136;2023-02-04T11:33:49;103714.28;;;11.28;74.63
64200;BME280;50516;52.272;5.136;2023-02-04T11:36:16;103722.34;;;11.36;74.13
64200;BME280;50516;52.272;5.136;2023-02-04T11:38:47;103720.22;;;11.31;74.08
64200;BME280;50516;52.272;5.136;2023-02-04T11:41:22;103712.66;;;11.54;73.42
64200;BME280;50516;52.272;5.136;2023-02-04T11:43:53;103711.00;;;11.66;73.48
64200;BME280;50516;52.272;5.136;2023-02-04T11:46:19;103712.28;;;11.77;72.94
64200;BME280;50516;52.272;5.136;2023-02-04T11:48:45;103706.75;;;11.50;71.59
64200;BME280;50516;52.272;5.136;2023-02-04T11:51:14;103704.19;;;11.42;71.67
64200;BME280;50516;52.272;5.136;2023-02-04T11:53:41;103699.72;;;11.34;71.96
64200;BME280;50516;52.272;5.136;2023-02-04T11:56:15;103706.94;;;11.48;71.97
64200;BME280;50516;52.272;5.136;2023-02-04T11:58:41;103705.72;;;11.64;70.49
64200;BME280;50516;52.272;5.136;2023-02-04T12:01:18;103709.94;;;11.80;71.14
64200;BME280;50516;52.272;5.136;2023-02-04T12:03:46;103710.59;;;11.82;70.67
64200;BME280;50516;52.272;5.136;2023-02-04T12:06:20;103715.66;;;11.72;70.35
64200;BME280;50516;52.272;5.136;2023-02-04T12:08:46;103721.13;;;11.59;70.54
64200;BME280;50516;52.272;5.136;2023-02-04T12:11:23;103729.00;;;11.75;70.13
64200;BME280;50516;52.272;5.136;2023-02-04T12:13:56;103723.28;;;11.70;69.70
64200;BME280;50516;52.272;5.136;2023-02-04T12:16:22;103721.75;;;11.41;70.25
64200;BME280;50516;52.272;5.136;2023-02-04T12:18:48;103718.38;;;11.52;71.29
64200;BME280;50516;52.272;5.136;2023-02-04T12:21:14;103721.13;;;11.59;71.65
64200;BME280;50516;52.272;5.136;2023-02-04T12:23:40;103718.78;;;11.49;72.14
64200;BME280;50516;52.272;5.136;2023-02-04T12:26:08;103713.91;;;11.44;71.38
64200;BME280;50516;52.272;5.136;2023-02-04T12:28:33;103726.41;;;11.40;72.76
64200;BME280;50516;52.272;5.136;2023-02-04T12:30:59;103723.25;;;11.50;71.91
64200;BME280;50516;52.272;5.136;2023-02-04T12:33:24;103722.22;;;11.64;71.78
64200;BME280;50516;52.272;5.136;2023-02-04T12:35:50;103723.06;;;11.85;71.01
64200;BME280;50516;52.272;5.136;2023-02-04T12:38:16;103725.88;;;11.92;70.08
64200;BME280;50516;52.272;5.136;2023-02-04T12:40:41;103722.66;;;11.81;70.36
64200;BME280;50516;52.272;5.136;2023-02-04T12:43:06;103726.31;;;12.02;70.18
64200;BME280;50516;52.272;5.136;2023-02-04T12:45:32;103725.91;;;11.98;68.93
64200;BME280;50516;52.272;5.136;2023-02-04T12:47:58;103726.94;;;12.04;70.07
64200;BME280;50516;52.272;5.136;2023-02-04T12:50:23;103717.19;;;12.15;69.62
64200;BME280;50516;52.272;5.136;2023-02-04T12:52:59;103719.50;;;11.98;68.70
64200;BME280;50516;52.272;5.136;2023-02-04T12:55:26;103730.72;;;11.83;69.37
64200;BME280;50516;52.272;5.136;2023-02-04T12:57:52;103724.81;;;11.99;68.95
64200;BME280;50516;52.272;5.136;2023-02-04T13:00:19;103722.06;;;11.93;68.60
64200;BME280;50516;52.272;5.136;2023-02-04T13:02:45;103719.31;;;11.99;69.83
64200;BME280;50516;52.272;5.136;2023-02-04T13:05:11;103717.22;;;12.01;70.10
64200;BME280;50516;52.272;5.136;2023-02-04T13:07:38;103710.84;;;12.01;70.29